createdAt,value
2023-02-19T00:03:38.179Z,99951.59
2023-02-19T00:09:00.799Z,99926.97
2023-02-19T00:14:22.653Z,99925.19
2023-02-19T00:19:44.545Z,99941.25
2023-02-19T00:25:06.484Z,99932.78
2023-02-19T00:30:28.484Z,99927.75
2023-02-19T00:35:50.282Z,99913.22
2023-02-19T00:41:13.711Z,99897.09
2023-02-19T00:46:39.159Z,99895.34
2023-02-19T00:52:01.046Z,99919.97
2023-02-19T00:57:22.916Z,99906.28
2023-02-19T01:02:44.939Z,99931.84
2023-02-19T01:08:06.766Z,99930.13
2023-02-19T01:13:29.145Z,99913.06
2023-02-19T01:18:51.599Z,99918.06
2023-02-19T01:24:13.476Z,99902.81
2023-02-19T01:29:35.460Z,99908.75
2023-02-19T01:34:57.395Z,99900.16
2023-02-19T01:40:19.311Z,99911.28
2023-02-19T01:45:45.057Z,99915.47
2023-02-19T01:51:17.137Z,99916.41
2023-02-19T01:56:42.186Z,99920.59
2023-02-19T02:02:04.343Z,99897.63
2023-02-19T02:07:26.793Z,99912.03
2023-02-19T02:12:56.898Z,99915.47
2023-02-19T02:18:29.203Z,99914.69
2023-02-19T02:24:34.192Z,99901.25
2023-02-19T02:30:14.889Z,99895.22
2023-02-19T02:35:45.060Z,99917.34
2023-02-19T02:41:07.152Z,99913.22
2023-02-19T02:46:35.320Z,99913.06
2023-02-19T02:51:58.887Z,99905.50
2023-02-19T02:57:20.947Z,99920.00
2023-02-19T03:02:44.112Z,99903.81
2023-02-19T03:08:12.743Z,99904.72
2023-02-19T03:13:38.321Z,99905.38
2023-02-19T03:19:01.324Z,99907.28
2023-02-19T03:24:29.783Z,99922.56
2023-02-19T03:29:54.565Z,99915.72
2023-02-19T03:35:24.320Z,99920.16
2023-02-19T03:40:55.786Z,99914.25
2023-02-19T03:46:25.640Z,99911.69
2023-02-19T03:51:54.563Z,99904.00
2023-02-19T03:57:22.401Z,99885.41
2023-02-19T04:02:58.489Z,99886.22
2023-02-19T04:08:23.999Z,99885.53
2023-02-19T04:13:51.015Z,99890.69
2023-02-19T04:19:18.849Z,99892.44
2023-02-19T04:24:47.553Z,99879.75
2023-02-19T04:30:12.606Z,99878.09
2023-02-19T04:35:34.515Z,99874.72
2023-02-19T04:40:56.522Z,99865.41
2023-02-19T04:46:18.429Z,99878.16
2023-02-19T04:51:41.080Z,99864.53
2023-02-19T04:57:03.139Z,99879.91
2023-02-19T05:02:25.002Z,99879.88
2023-02-19T05:07:46.822Z,99862.09
2023-02-19T05:13:08.860Z,99870.53
2023-02-19T05:18:31.759Z,99868.84
2023-02-19T05:23:53.633Z,99857.78
2023-02-19T05:29:15.556Z,99844.28
2023-02-19T05:34:37.397Z,99854.34
2023-02-19T05:39:59.397Z,99857.75
2023-02-19T05:45:21.269Z,99840.78
2023-02-19T05:50:43.137Z,99849.28
2023-02-19T05:56:05.407Z,99841.69
2023-02-19T06:01:28.567Z,99850.16
2023-02-19T06:06:50.622Z,99845.84
2023-02-19T06:12:12.475Z,99843.22
2023-02-19T06:17:34.803Z,99837.16
2023-02-19T06:22:56.653Z,99858.31
2023-02-19T06:28:18.540Z,99870.13
2023-02-19T06:33:40.723Z,99857.38
2023-02-19T06:39:03.991Z,99856.59
2023-02-19T06:44:26.051Z,99853.78
2023-02-19T06:49:48.000Z,99856.13
2023-02-19T06:55:09.924Z,99837.38
2023-02-19T07:00:31.838Z,99857.63
2023-02-19T07:05:54.147Z,99854.47
2023-02-19T07:11:16.202Z,99864.59
2023-02-19T07:16:38.353Z,99881.69
2023-02-19T07:22:00.260Z,99874.81
2023-02-19T07:27:22.116Z,99880.44
2023-02-19T07:32:43.985Z,99886.38
2023-02-19T07:38:05.842Z,99887.19
2023-02-19T07:43:32.548Z,99887.13
2023-02-19T07:48:54.725Z,99887.13
2023-02-19T07:54:16.589Z,99888.13
2023-02-19T07:59:38.461Z,99897.09
2023-02-19T08:05:00.413Z,99890.75
2023-02-19T08:10:22.317Z,99902.06
2023-02-19T08:15:44.997Z,99897.19
2023-02-19T08:21:07.108Z,99911.66
2023-02-19T08:26:29.126Z,99908.25
2023-02-19T08:31:50.990Z,99922.16
2023-02-19T08:37:12.976Z,99916.00
2023-02-19T08:42:34.809Z,99921.88
2023-02-19T08:47:56.711Z,99928.88
2023-02-19T08:53:18.561Z,99928.81
2023-02-19T08:58:41.349Z,99925.88
2023-02-19T09:04:03.214Z,99919.22
2023-02-19T09:09:25.093Z,99922.44
2023-02-19T09:14:46.996Z,99922.38
2023-02-19T09:20:09.187Z,99923.81
2023-02-19T09:25:31.036Z,99926.81
2023-02-19T09:30:53.084Z,99933.63
2023-02-19T09:36:16.380Z,99917.31
2023-02-19T09:41:48.043Z,99912.38
2023-02-19T09:47:25.214Z,99937.94
2023-02-19T09:52:54.757Z,99944.59
2023-02-19T09:58:39.797Z,99930.22
2023-02-19T10:04:01.800Z,99921.91
2023-02-19T10:09:26.725Z,99917.94
2023-02-19T10:14:52.181Z,99917.16
2023-02-19T10:20:23.952Z,99917.09
2023-02-19T10:25:53.498Z,99915.91
2023-02-19T10:31:21.788Z,99929.56
2023-02-19T10:36:43.787Z,99928.91
2023-02-19T10:42:05.913Z,99937.09
2023-02-19T10:47:31.201Z,99942.72
2023-02-19T10:52:55.851Z,99934.84
2023-02-19T10:58:26.388Z,99930.22
2023-02-19T11:03:53.565Z,99939.78
2023-02-19T11:09:39.282Z,99948.25
2023-02-19T11:15:32.250Z,99952.47
2023-02-19T11:21:01.964Z,99947.50
2023-02-19T11:26:27.765Z,99952.00
2023-02-19T11:31:49.702Z,99947.91
2023-02-19T11:37:16.878Z,99951.28
2023-02-19T11:42:57.891Z,99940.56
2023-02-19T11:48:36.207Z,99952.50
2023-02-19T11:54:18.341Z,99944.56
2023-02-19T12:00:14.704Z,99947.97
2023-02-19T12:05:50.482Z,99958.81
2023-02-19T12:11:35.743Z,99968.63
2023-02-19T12:17:21.170Z,99978.66
2023-02-19T12:23:05.339Z,99984.63
2023-02-19T12:28:48.192Z,99994.13
2023-02-19T12:34:31.325Z,99990.72
2023-02-19T12:40:43.992Z,100009.53
2023-02-19T12:46:19.939Z,100011.78
2023-02-19T12:51:48.705Z,100010.72
2023-02-19T12:57:24.752Z,100018.91
2023-02-19T13:02:54.766Z,100006.66
2023-02-19T13:09:04.738Z,100031.09
2023-02-19T13:14:58.699Z,100020.16
2023-02-19T13:20:25.403Z,100021.03
2023-02-19T13:26:08.556Z,100015.34
2023-02-19T13:31:39.411Z,100017.66
2023-02-19T13:37:02.344Z,100032.91
2023-02-19T13:42:31.272Z,100017.25
2023-02-19T13:47:55.924Z,100046.41
2023-02-19T13:53:42.485Z,100054.91
2023-02-19T13:59:39.221Z,100059.72
2023-02-19T14:05:10.713Z,100065.88
2023-02-19T14:10:57.013Z,100065.22
2023-02-19T14:16:36.778Z,100084.34
2023-02-19T14:21:58.665Z,100095.59
2023-02-19T14:27:21.477Z,100100.06
2023-02-19T14:32:47.436Z,100095.84
2023-02-19T14:38:38.146Z,100098.78
2023-02-19T14:44:02.125Z,100098.63
2023-02-19T14:49:27.282Z,100110.84
2023-02-19T14:54:56.135Z,100123.31
2023-02-19T15:00:30.241Z,100118.69
2023-02-19T15:05:58.877Z,100115.25
2023-02-19T15:11:23.563Z,100143.38
2023-02-19T15:16:45.733Z,100149.56
2023-02-19T15:22:07.604Z,100156.31
2023-02-19T15:27:29.760Z,100160.69
2023-02-19T15:32:53.697Z,100180.38
2023-02-19T15:38:15.912Z,100191.84
2023-02-19T15:43:54.327Z,100198.84
2023-02-19T15:49:29.361Z,100193.88
2023-02-19T15:55:04.165Z,100201.66
2023-02-19T16:00:54.261Z,100198.25
2023-02-19T16:06:18.081Z,100199.16
2023-02-19T16:11:49.757Z,100228.97
2023-02-19T16:17:17.940Z,100230.00
2023-02-19T16:22:41.938Z,100236.81
2023-02-19T16:28:21.672Z,100241.19
2023-02-19T16:33:48.478Z,100266.69
2023-02-19T16:39:16.881Z,100278.69
2023-02-19T16:44:38.760Z,100277.06
2023-02-19T16:50:03.563Z,100293.16
2023-02-19T16:55:27.461Z,100281.16
2023-02-19T17:00:49.411Z,100293.09
2023-02-19T17:06:12.016Z,100284.59
2023-02-19T17:11:34.667Z,100289.63
2023-02-19T17:16:56.672Z,100299.84
2023-02-19T17:22:18.595Z,100313.47
2023-02-19T17:27:40.723Z,100313.56
2023-02-19T17:33:02.853Z,100310.16
2023-02-19T17:38:24.731Z,100330.72
2023-02-19T17:43:46.661Z,100338.41
2023-02-19T17:49:12.374Z,100349.47
2023-02-19T17:54:34.349Z,100356.28
2023-02-19T17:59:56.229Z,100359.66
2023-02-19T18:05:18.255Z,100369.94
2023-02-19T18:10:40.162Z,100386.13
2023-02-19T18:16:02.098Z,100398.06
2023-02-19T18:21:24.017Z,100407.44
2023-02-19T18:26:45.905Z,100398.09
2023-02-19T18:32:07.984Z,100411.69
2023-02-19T18:37:30.462Z,100396.38
2023-02-19T18:42:52.450Z,100407.44
2023-02-19T18:48:14.298Z,100415.09
2023-02-19T18:53:36.511Z,100411.66
2023-02-19T18:58:58.752Z,100421.91
2023-02-19T19:04:20.716Z,100430.34
2023-02-19T19:09:42.642Z,100447.34
2023-02-19T19:15:04.809Z,100453.28
2023-02-19T19:20:26.628Z,100458.34
2023-02-19T19:25:48.484Z,100460.06
2023-02-19T19:31:12.132Z,100461.69
2023-02-19T19:36:34.508Z,100479.53
2023-02-19T19:41:56.975Z,100478.66
2023-02-19T19:47:19.294Z,100499.88
2023-02-19T19:52:41.301Z,100496.44
2023-02-19T19:58:03.320Z,100494.72
2023-02-19T20:03:25.251Z,100500.63
2023-02-19T20:08:48.531Z,100504.81
2023-02-19T20:14:10.534Z,100503.09
2023-02-19T20:19:32.416Z,100495.44
2023-02-19T20:24:54.905Z,100506.41
2023-02-19T20:30:18.721Z,100497.88
2023-02-19T20:35:40.655Z,100519.94
2023-02-19T20:41:02.983Z,100525.81
2023-02-19T20:46:24.966Z,100536.75
2023-02-19T20:51:52.985Z,100547.81
2023-02-19T20:57:15.064Z,100553.66
2023-02-19T21:02:37.040Z,100560.38
2023-02-19T21:07:59.100Z,100568.88
2023-02-19T21:13:21.178Z,100561.19
2023-02-19T21:18:43.158Z,100582.34
2023-02-19T21:24:05.199Z,100587.44
2023-02-19T21:29:27.148Z,100569.53
2023-02-19T21:34:49.068Z,100572.97
2023-02-19T21:40:12.374Z,100585.59
2023-02-19T21:45:34.344Z,100576.25
2023-02-19T21:50:56.397Z,100586.44
2023-02-19T21:56:26.203Z,100589.78
2023-02-19T22:01:48.502Z,100593.16
2023-02-19T22:07:10.360Z,100593.91
2023-02-19T22:12:32.232Z,100604.97
2023-02-19T22:17:54.208Z,100614.28
2023-02-19T22:23:16.043Z,100619.44
2023-02-19T22:28:38.787Z,100620.31
2023-02-19T22:34:00.650Z,100622.00
2023-02-19T22:39:26.615Z,100610.09
2023-02-19T22:44:48.508Z,100613.50
2023-02-19T22:50:20.828Z,100598.19
2023-02-19T22:55:42.708Z,100600.78
2023-02-19T23:01:04.808Z,100601.78
2023-02-19T23:06:34.220Z,100588.16
2023-02-19T23:12:05.082Z,100565.38
2023-02-19T23:17:27.057Z,100595.16
2023-02-19T23:22:48.900Z,100602.84
2023-02-19T23:28:10.870Z,100609.72
2023-02-19T23:33:32.850Z,100619.16
2023-02-19T23:38:54.743Z,100622.59
2023-02-19T23:44:17.571Z,100631.06
2023-02-19T23:49:39.649Z,100605.50
2023-02-19T23:55:01.509Z,100609.75
